createdAt,value
2017-07-12T00:02:07.336Z,74.90
2017-07-12T00:04:34.841Z,74.30
2017-07-12T00:07:02.548Z,74.80
2017-07-12T00:09:30.055Z,74.20
2017-07-12T00:11:57.744Z,74.00
2017-07-12T00:14:25.402Z,74.40
2017-07-12T00:16:53.344Z,73.60
2017-07-12T00:19:20.796Z,74.10
2017-07-12T00:21:48.340Z,73.40
2017-07-12T00:24:18.630Z,74.00
2017-07-12T00:26:46.640Z,73.90
2017-07-12T00:29:17.399Z,74.40
2017-07-12T00:31:44.885Z,74.00
2017-07-12T00:34:12.405Z,74.40
2017-07-12T00:36:39.973Z,74.70
2017-07-12T00:39:07.584Z,74.20
2017-07-12T00:41:35.276Z,74.20
2017-07-12T00:44:02.776Z,75.00
2017-07-12T00:46:30.293Z,74.60
2017-07-12T00:48:58.662Z,74.30
2017-07-12T00:51:26.383Z,74.20
2017-07-12T00:53:53.928Z,74.50
2017-07-12T00:56:21.395Z,74.60
2017-07-12T00:58:49.034Z,74.80
2017-07-12T01:01:16.494Z,75.00
2017-07-12T01:03:44.072Z,75.00
2017-07-12T01:09:10.404Z,75.00
2017-07-12T01:11:37.974Z,74.60
2017-07-12T01:14:11.733Z,75.10
2017-07-12T01:16:39.188Z,74.70
2017-07-12T01:19:06.914Z,74.70
2017-07-12T01:21:34.717Z,75.50
2017-07-12T01:24:03.324Z,75.30
2017-07-12T01:26:30.818Z,75.10
2017-07-12T01:28:58.443Z,74.90
2017-07-12T01:31:26.996Z,74.80
2017-07-12T01:33:54.487Z,74.80
2017-07-12T01:36:21.989Z,75.00
2017-07-12T01:38:49.534Z,74.60
2017-07-12T01:41:17.017Z,75.00
2017-07-12T01:43:44.501Z,75.00
2017-07-12T01:46:12.766Z,75.60
2017-07-12T01:48:40.295Z,75.50
2017-07-12T01:51:07.769Z,76.30
2017-07-12T01:53:35.256Z,75.80
2017-07-12T01:56:02.825Z,75.80
2017-07-12T01:58:30.393Z,75.20
2017-07-12T02:00:58.820Z,75.10
2017-07-12T02:03:26.336Z,75.00
2017-07-12T02:05:53.873Z,75.50
2017-07-12T02:08:21.440Z,75.10
2017-07-12T02:10:48.920Z,74.90
2017-07-12T02:13:16.408Z,74.90
2017-07-12T02:15:43.895Z,75.00
2017-07-12T02:18:11.402Z,75.10
2017-07-12T02:20:39.132Z,74.50
2017-07-12T02:23:07.408Z,76.10
2017-07-12T02:25:34.880Z,76.00
2017-07-12T02:28:03.119Z,77.40
2017-07-12T02:30:30.596Z,77.40
2017-07-12T02:32:58.204Z,78.50
2017-07-12T02:35:26.341Z,78.80
2017-07-12T02:37:53.892Z,78.60
2017-07-12T02:40:21.446Z,79.20
2017-07-12T02:42:48.921Z,79.30
2017-07-12T02:45:16.621Z,79.90
2017-07-12T02:47:44.181Z,78.70
2017-07-12T02:50:11.694Z,79.20
2017-07-12T02:52:39.343Z,80.00
2017-07-12T02:55:06.953Z,79.60
2017-07-12T02:57:34.408Z,81.20
2017-07-12T03:00:01.938Z,80.90
2017-07-12T03:02:29.589Z,82.10
2017-07-12T03:04:57.147Z,81.40
2017-07-12T03:07:29.125Z,82.60
2017-07-12T03:09:57.711Z,82.10
2017-07-12T03:12:26.929Z,81.50
2017-07-12T03:14:54.496Z,81.30
2017-07-12T03:17:26.003Z,81.50
2017-07-12T03:19:54.470Z,82.30
2017-07-12T03:22:24.042Z,81.50
2017-07-12T03:24:51.548Z,81.50
2017-07-12T03:27:22.985Z,81.80
2017-07-12T03:29:59.279Z,81.50
2017-07-12T03:32:26.796Z,81.10
2017-07-12T03:34:54.599Z,80.70
2017-07-12T03:37:22.179Z,81.00
2017-07-12T03:40:15.820Z,81.20
2017-07-12T03:42:58.954Z,80.50
2017-07-12T03:45:26.631Z,81.20
2017-07-12T03:47:54.230Z,80.90
2017-07-12T03:50:21.751Z,80.40
2017-07-12T03:52:49.259Z,80.60
2017-07-12T03:55:16.770Z,80.60
2017-07-12T03:57:44.790Z,80.50
2017-07-12T04:00:12.326Z,80.20
2017-07-12T04:02:43.549Z,79.70
2017-07-12T04:05:12.271Z,79.60
2017-07-12T04:07:39.789Z,79.10
2017-07-12T04:10:07.301Z,79.40
2017-07-12T04:12:34.805Z,80.10
2017-07-12T04:15:02.423Z,79.30
2017-07-12T04:17:30.301Z,79.50
2017-07-12T04:19:57.850Z,79.60
2017-07-12T04:22:25.610Z,79.50
2017-07-12T04:24:53.222Z,80.40
2017-07-12T04:27:21.772Z,81.20
2017-07-12T04:29:49.296Z,81.80
2017-07-12T04:32:23.617Z,82.50
2017-07-12T04:34:51.277Z,83.00
2017-07-12T04:37:18.785Z,81.80
2017-07-12T04:39:48.081Z,82.60
2017-07-12T04:42:21.645Z,82.80
2017-07-12T04:44:53.617Z,82.80
2017-07-12T04:47:26.111Z,82.60
2017-07-12T04:49:56.629Z,84.30
2017-07-12T04:52:24.965Z,84.50
2017-07-12T04:54:52.557Z,83.80
2017-07-12T04:57:21.269Z,83.70
2017-07-12T04:59:48.809Z,82.70
2017-07-12T05:02:23.576Z,83.30
2017-07-12T05:04:52.327Z,82.40
2017-07-12T05:07:19.892Z,82.50
2017-07-12T05:09:47.391Z,83.80
2017-07-12T05:12:16.086Z,84.00
2017-07-12T05:14:44.484Z,83.20
2017-07-12T05:17:14.338Z,83.80
2017-07-12T05:19:44.223Z,82.30
2017-07-12T05:22:11.736Z,82.50
2017-07-12T05:24:39.458Z,82.30
2017-07-12T05:27:14.847Z,82.90
2017-07-12T05:29:42.459Z,83.20
2017-07-12T05:32:11.899Z,81.60
2017-07-12T05:34:41.413Z,81.20
2017-07-12T05:37:10.489Z,83.30
2017-07-12T05:39:38.262Z,82.10
2017-07-12T05:42:05.811Z,83.40
2017-07-12T05:44:34.209Z,82.70
2017-07-12T05:47:02.698Z,82.70
2017-07-12T05:49:31.280Z,82.10
2017-07-12T05:51:58.809Z,81.90
2017-07-12T05:54:26.908Z,82.20
2017-07-12T05:56:54.565Z,82.20
2017-07-12T05:59:22.221Z,81.80
2017-07-12T06:01:49.812Z,82.50
2017-07-12T06:04:17.516Z,84.40
2017-07-12T06:06:48.406Z,83.90
2017-07-12T06:09:15.975Z,83.40
2017-07-12T06:11:43.632Z,83.20
2017-07-12T06:14:11.552Z,83.00
2017-07-12T06:16:40.705Z,82.90
2017-07-12T06:19:08.254Z,83.10
2017-07-12T06:21:37.046Z,82.50
2017-07-12T06:24:09.617Z,82.40
2017-07-12T06:26:37.600Z,82.80
2017-07-12T06:29:13.117Z,82.50
2017-07-12T06:31:41.554Z,83.90
2017-07-12T06:34:09.840Z,81.80
2017-07-12T06:36:37.509Z,82.80
2017-07-12T06:39:05.089Z,82.50
2017-07-12T06:41:32.759Z,82.90
2017-07-12T06:44:01.917Z,83.10
2017-07-12T06:46:30.054Z,83.30
2017-07-12T06:48:57.622Z,83.70
2017-07-12T06:51:25.670Z,83.40
2017-07-12T06:53:54.120Z,83.30
2017-07-12T06:56:26.566Z,83.40
2017-07-12T06:58:56.201Z,83.10
2017-07-12T07:01:25.237Z,83.60
2017-07-12T07:03:52.910Z,82.70
2017-07-12T07:06:21.687Z,83.50
2017-07-12T07:08:49.241Z,83.50
2017-07-12T07:11:20.040Z,83.00
2017-07-12T07:13:48.578Z,83.70
2017-07-12T07:16:16.306Z,82.80
2017-07-12T07:18:45.136Z,82.20
2017-07-12T07:21:12.925Z,82.50
2017-07-12T07:23:41.253Z,83.40
2017-07-12T07:26:08.999Z,82.60
2017-07-12T07:28:36.829Z,82.90
2017-07-12T07:31:07.190Z,81.70
2017-07-12T07:33:37.116Z,81.70
2017-07-12T07:36:06.611Z,83.10
2017-07-12T07:38:38.506Z,82.30
2017-07-12T07:41:06.385Z,82.10
2017-07-12T07:43:33.993Z,81.80
2017-07-12T07:46:01.859Z,82.50
2017-07-12T07:48:29.464Z,82.10
2017-07-12T07:50:57.202Z,83.00
2017-07-12T07:53:24.964Z,82.70
2017-07-12T07:55:53.297Z,83.00
2017-07-12T07:58:20.892Z,82.30
2017-07-12T08:00:48.503Z,83.60
2017-07-12T08:03:16.045Z,82.90
2017-07-12T08:05:43.581Z,84.10
2017-07-12T08:08:11.103Z,84.60
2017-07-12T08:10:38.646Z,84.70
2017-07-12T08:13:06.208Z,83.80
2017-07-12T08:15:34.071Z,83.60
2017-07-12T08:18:01.707Z,84.20
2017-07-12T08:20:31.177Z,84.70
2017-07-12T08:22:59.949Z,84.80
2017-07-12T08:25:28.343Z,84.40
2017-07-12T08:27:56.360Z,84.70
2017-07-12T08:30:23.868Z,85.80
2017-07-12T08:32:57.004Z,84.90
2017-07-12T08:38:55.581Z,85.50
2017-07-12T08:41:23.193Z,84.00
2017-07-12T08:43:50.995Z,84.90
2017-07-12T08:46:18.693Z,84.50
2017-07-12T08:48:49.779Z,83.80
2017-07-12T08:51:17.313Z,83.00
2017-07-12T08:53:45.120Z,84.40
2017-07-12T08:56:12.668Z,83.70
2017-07-12T08:58:40.433Z,84.10
2017-07-12T09:01:08.841Z,84.20
2017-07-12T09:03:36.381Z,84.20
2017-07-12T09:06:04.356Z,83.10
2017-07-12T09:08:33.816Z,84.60
2017-07-12T09:11:01.826Z,82.50
2017-07-12T09:13:30.472Z,83.00
2017-07-12T09:15:58.758Z,81.80
2017-07-12T09:18:27.713Z,81.80
2017-07-12T09:20:55.613Z,81.70
2017-07-12T09:23:23.387Z,81.70
2017-07-12T09:33:15.126Z,82.60
2017-07-12T09:35:45.320Z,83.30
2017-07-12T09:38:14.226Z,82.90
2017-07-12T09:40:43.084Z,83.80
2017-07-12T09:43:10.912Z,83.80
2017-07-12T09:45:42.549Z,85.50
2017-07-12T09:48:13.825Z,84.50
2017-07-12T09:50:42.843Z,85.80
2017-07-12T09:53:10.870Z,85.20
2017-07-12T09:55:38.899Z,85.00
2017-07-12T09:58:11.017Z,85.20
2017-07-12T10:00:38.831Z,85.20
2017-07-12T10:03:08.897Z,84.70
2017-07-12T10:05:36.579Z,84.70
2017-07-12T10:08:04.416Z,84.50
2017-07-12T10:10:32.148Z,85.00
2017-07-12T10:12:59.752Z,84.00
2017-07-12T10:15:27.361Z,83.90
2017-07-12T10:17:54.928Z,83.30
2017-07-12T10:20:23.527Z,84.20
2017-07-12T10:22:51.234Z,83.90
2017-07-12T10:25:18.849Z,83.60
2017-07-12T10:27:46.506Z,84.30
2017-07-12T10:30:15.188Z,83.70
2017-07-12T10:32:43.042Z,84.20
2017-07-12T10:35:11.781Z,84.40
2017-07-12T10:37:40.467Z,84.30
2017-07-12T10:40:08.331Z,84.70
2017-07-12T10:42:37.349Z,85.00
2017-07-12T10:45:07.996Z,84.50
2017-07-12T10:47:35.543Z,84.40
2017-07-12T10:50:07.930Z,84.90
2017-07-12T10:52:38.832Z,84.70
2017-07-12T10:55:07.937Z,85.20
2017-07-12T10:57:35.493Z,85.80
2017-07-12T11:00:03.561Z,86.40
2017-07-12T11:02:32.392Z,86.20
2017-07-12T11:05:01.852Z,85.40
2017-07-12T11:07:30.047Z,85.30
2017-07-12T11:09:58.621Z,85.90
2017-07-12T11:12:27.660Z,85.60
2017-07-12T11:14:55.962Z,86.30
2017-07-12T11:17:24.151Z,86.30
2017-07-12T11:19:51.855Z,85.80
2017-07-12T11:22:26.475Z,85.80
2017-07-12T11:24:54.286Z,85.80
2017-07-12T11:27:21.951Z,85.90
2017-07-12T11:29:49.848Z,86.40
2017-07-12T11:32:18.672Z,85.40
2017-07-12T11:34:47.488Z,85.70
2017-07-12T11:37:15.192Z,84.90
2017-07-12T11:39:42.736Z,84.20
2017-07-12T11:42:11.150Z,84.80
2017-07-12T11:44:41.865Z,85.20
2017-07-12T11:47:11.190Z,85.20
2017-07-12T11:49:39.830Z,84.80
2017-07-12T11:55:11.353Z,84.50
2017-07-12T11:57:38.973Z,85.40
2017-07-12T12:00:07.696Z,85.60
2017-07-12T12:02:36.299Z,85.50
2017-07-12T12:05:04.417Z,84.60
2017-07-12T12:07:32.902Z,85.60
2017-07-12T12:10:05.244Z,83.90
2017-07-12T12:12:36.334Z,84.50
2017-07-12T12:15:09.601Z,85.60
2017-07-12T12:17:38.018Z,84.50
2017-07-12T12:20:05.841Z,84.80
2017-07-12T12:22:34.488Z,84.80
2017-07-12T12:25:03.243Z,84.20
2017-07-12T12:27:31.044Z,84.50
2017-07-12T12:29:58.755Z,85.20
2017-07-12T12:32:26.428Z,86.00
2017-07-12T12:34:54.089Z,84.70
2017-07-12T12:37:21.661Z,84.50
2017-07-12T12:39:50.389Z,84.50
2017-07-12T12:42:18.988Z,85.30
2017-07-12T12:44:46.464Z,86.40
2017-07-12T12:47:14.064Z,88.00
2017-07-12T12:49:43.558Z,87.80
2017-07-12T12:52:13.763Z,88.70
2017-07-12T12:54:45.106Z,88.00
2017-07-12T12:57:15.920Z,87.80
2017-07-12T12:59:44.797Z,88.00
2017-07-12T13:02:14.181Z,88.50
2017-07-12T13:05:08.674Z,89.50
2017-07-12T13:07:36.941Z,88.90
2017-07-12T13:10:17.284Z,88.20
2017-07-12T13:12:45.573Z,87.90
2017-07-12T13:15:13.418Z,88.00
2017-07-12T13:17:42.268Z,88.40
2017-07-12T13:20:09.986Z,88.20
2017-07-12T13:22:37.548Z,88.00
2017-07-12T13:25:06.429Z,86.60
2017-07-12T13:27:34.324Z,86.30
2017-07-12T13:30:04.273Z,86.40
2017-07-12T13:32:32.531Z,84.90
2017-07-12T13:35:01.610Z,85.30
2017-07-12T13:37:31.114Z,85.80
2017-07-12T13:40:03.051Z,85.10
2017-07-12T13:42:30.771Z,85.90
2017-07-12T13:44:59.203Z,86.40
2017-07-12T13:47:26.960Z,85.00
2017-07-12T13:49:55.291Z,84.30
2017-07-12T13:52:22.954Z,84.90
2017-07-12T13:54:50.792Z,86.00
2017-07-12T13:57:18.464Z,84.20
2017-07-12T13:59:47.756Z,84.50
2017-07-12T14:02:15.475Z,85.00
2017-07-12T14:04:44.485Z,84.30
2017-07-12T14:07:12.374Z,83.40
2017-07-12T14:09:40.896Z,83.90
2017-07-12T14:12:08.666Z,83.80
2017-07-12T14:14:36.094Z,84.20
2017-07-12T14:17:06.875Z,84.00
2017-07-12T14:19:35.117Z,84.00
2017-07-12T14:22:05.209Z,82.90
2017-07-12T14:24:56.301Z,83.20
2017-07-12T14:27:56.240Z,82.80
2017-07-12T14:30:28.576Z,83.30
2017-07-12T14:33:05.478Z,82.80
2017-07-12T14:39:06.323Z,82.70
2017-07-12T14:41:36.379Z,83.20
2017-07-12T14:44:17.982Z,81.00
2017-07-12T15:02:30.853Z,78.50
2017-07-12T15:05:01.935Z,80.50
2017-07-12T15:08:06.959Z,83.30
2017-07-12T15:10:42.321Z,84.70
2017-07-12T15:13:22.326Z,87.80
2017-07-12T15:15:58.283Z,84.50
2017-07-12T15:39:28.192Z,78.20
2017-07-12T15:41:56.771Z,77.80
2017-07-12T15:44:25.367Z,78.50
2017-07-12T15:46:53.095Z,76.70
2017-07-12T15:49:21.031Z,77.70
2017-07-12T15:51:48.853Z,78.20
2017-07-12T15:54:16.949Z,77.70
2017-07-12T15:56:44.533Z,77.50
2017-07-12T15:59:13.069Z,77.90
2017-07-12T16:01:40.776Z,76.90
2017-07-12T16:04:11.469Z,75.20
2017-07-12T16:06:40.210Z,75.10
2017-07-12T16:09:28.097Z,74.70
2017-07-12T16:11:57.092Z,74.40
2017-07-12T16:28:45.823Z,74.90
2017-07-12T16:49:45.368Z,77.30
2017-07-12T17:06:44.769Z,77.30
2017-07-12T17:09:26.274Z,73.40
2017-07-12T17:12:12.254Z,73.90
2017-07-12T17:26:33.726Z,72.50
2017-07-12T17:31:50.636Z,71.40
2017-07-12T17:34:28.546Z,70.40
2017-07-12T17:38:36.244Z,72.00
2017-07-12T17:41:04.441Z,70.70
2017-07-12T17:43:34.586Z,70.50
2017-07-12T17:46:03.065Z,69.70
2017-07-12T17:48:35.053Z,69.70
2017-07-12T17:51:03.494Z,69.30
2017-07-12T17:53:38.911Z,68.90
2017-07-12T17:56:20.919Z,68.20
2017-07-12T17:58:50.766Z,67.50
2017-07-12T18:01:19.626Z,66.30
2017-07-12T18:03:47.639Z,66.30
2017-07-12T18:06:16.790Z,66.40
2017-07-12T18:08:44.390Z,65.50
2017-07-12T18:11:13.791Z,65.30
2017-07-12T18:13:41.450Z,64.80
2017-07-12T18:16:09.406Z,62.80
2017-07-12T18:18:47.313Z,62.70
2017-07-12T18:21:19.161Z,62.70
2017-07-12T18:23:47.702Z,63.50
2017-07-12T18:26:17.275Z,63.00
2017-07-12T18:28:45.751Z,62.30
2017-07-12T18:31:16.314Z,61.50
2017-07-12T18:33:45.378Z,61.90
2017-07-12T18:36:17.487Z,61.60
2017-07-12T18:38:46.587Z,61.70
2017-07-12T18:41:15.376Z,62.10
2017-07-12T18:43:42.866Z,62.50
2017-07-12T18:46:10.370Z,62.30
2017-07-12T18:48:38.089Z,62.40
2017-07-12T18:51:07.623Z,62.50
2017-07-12T18:53:35.298Z,63.80
2017-07-12T18:56:03.200Z,63.30
2017-07-12T18:58:30.774Z,63.30
2017-07-12T19:00:58.463Z,63.60
2017-07-12T19:03:26.589Z,67.90
2017-07-12T19:05:54.336Z,64.40
2017-07-12T19:08:23.161Z,64.90
2017-07-12T19:10:50.712Z,64.90
2017-07-12T19:13:22.004Z,65.70
2017-07-12T19:15:50.111Z,66.20
2017-07-12T19:18:21.920Z,66.80
2017-07-12T19:20:50.179Z,66.60
2017-07-12T19:23:20.301Z,66.00
2017-07-12T19:25:47.945Z,66.60
2017-07-12T19:28:18.321Z,66.80
2017-07-12T19:30:46.865Z,65.70
2017-07-12T19:33:15.246Z,65.40
2017-07-12T19:35:42.763Z,65.60
2017-07-12T19:38:10.319Z,65.50
2017-07-12T19:40:37.922Z,65.50
2017-07-12T19:43:05.588Z,65.90
2017-07-12T19:45:33.166Z,65.70
2017-07-12T19:48:04.145Z,65.80
2017-07-12T19:50:31.777Z,65.10
2017-07-12T19:52:59.462Z,65.00
2017-07-12T19:55:28.649Z,64.90
2017-07-12T19:57:56.196Z,65.00
2017-07-12T20:00:25.087Z,65.00
2017-07-12T20:02:52.680Z,64.90
2017-07-12T20:05:22.732Z,64.70
2017-07-12T20:07:50.201Z,64.70
2017-07-12T20:10:18.616Z,65.10
2017-07-12T20:12:46.431Z,64.60
2017-07-12T20:15:14.064Z,65.00
2017-07-12T20:17:41.613Z,65.50
2017-07-12T20:20:09.178Z,65.70
2017-07-12T20:22:36.773Z,65.70
2017-07-12T20:25:05.943Z,66.00
2017-07-12T20:27:33.557Z,66.10
2017-07-12T20:30:01.017Z,66.10
2017-07-12T20:32:28.814Z,66.50
2017-07-12T20:34:56.383Z,68.00
2017-07-12T20:37:24.043Z,66.80
2017-07-12T20:39:51.679Z,66.80
2017-07-12T20:42:19.196Z,67.00
2017-07-12T20:44:46.819Z,67.80
2017-07-12T20:47:16.294Z,67.90
2017-07-12T20:49:44.496Z,68.00
2017-07-12T20:52:13.739Z,67.80
2017-07-12T20:54:41.340Z,68.20
2017-07-12T20:57:09.005Z,68.30
2017-07-12T20:59:36.582Z,68.40
2017-07-12T21:02:05.559Z,68.50
2017-07-12T21:04:33.106Z,69.50
2017-07-12T21:07:00.553Z,68.80
2017-07-12T21:09:28.064Z,69.30
2017-07-12T21:11:55.708Z,69.20
2017-07-12T21:14:23.694Z,69.60
2017-07-12T21:16:51.292Z,69.00
2017-07-12T21:19:18.763Z,68.70
2017-07-12T21:21:48.234Z,68.80
2017-07-12T21:24:15.770Z,68.70
2017-07-12T21:26:43.256Z,69.20
2017-07-12T21:29:10.784Z,68.80
2017-07-12T21:31:39.661Z,69.30
2017-07-12T21:34:08.059Z,69.60
2017-07-12T21:36:36.224Z,69.50
2017-07-12T21:39:03.831Z,70.10
2017-07-12T21:41:31.318Z,70.00
2017-07-12T21:43:58.798Z,70.10
2017-07-12T21:46:26.256Z,69.70
2017-07-12T21:48:53.785Z,69.90
2017-07-12T21:51:21.270Z,70.00
2017-07-12T21:54:06.428Z,69.70
2017-07-12T21:56:51.537Z,69.90
2017-07-12T21:59:36.725Z,69.70
2017-07-12T22:02:21.817Z,69.70
2017-07-12T22:05:06.904Z,70.10
2017-07-12T22:07:51.971Z,70.30
2017-07-12T22:10:37.884Z,70.70
2017-07-12T22:13:23.232Z,70.50
2017-07-12T22:16:08.193Z,69.90
2017-07-12T22:18:53.508Z,70.20
2017-07-12T22:21:38.910Z,69.90
2017-07-12T22:24:24.769Z,70.70
2017-07-12T22:27:09.927Z,70.70
2017-07-12T22:29:54.912Z,70.70
2017-07-12T22:32:41.047Z,71.00
2017-07-12T22:35:26.283Z,71.40
2017-07-12T22:37:59.374Z,71.50
2017-07-12T22:40:32.485Z,71.00
2017-07-12T22:43:08.051Z,71.40
2017-07-12T22:45:35.552Z,71.70
2017-07-12T22:48:03.957Z,72.30
2017-07-12T22:50:31.435Z,72.50
2017-07-12T22:52:58.998Z,72.00
2017-07-12T22:55:26.508Z,72.20
2017-07-12T22:57:54.236Z,72.10
2017-07-12T23:00:21.759Z,72.30
2017-07-12T23:02:49.225Z,72.70
2017-07-12T23:05:16.780Z,73.20
2017-07-12T23:07:44.241Z,73.00
2017-07-12T23:10:11.877Z,72.70
2017-07-12T23:12:39.583Z,73.20
2017-07-12T23:15:07.098Z,73.50
2017-07-12T23:17:34.584Z,73.20
2017-07-12T23:20:02.473Z,73.20
2017-07-12T23:22:29.919Z,73.40
2017-07-12T23:24:57.447Z,73.30
2017-07-12T23:27:24.935Z,73.10
2017-07-12T23:29:52.511Z,73.20
2017-07-12T23:32:20.089Z,73.30
2017-07-12T23:34:47.889Z,73.70
2017-07-12T23:37:15.524Z,73.70
2017-07-12T23:39:43.044Z,73.50
2017-07-12T23:42:10.562Z,73.70
2017-07-12T23:44:38.023Z,73.90
2017-07-12T23:47:05.578Z,73.90
2017-07-12T23:49:33.848Z,73.70
2017-07-12T23:52:01.253Z,74.00
2017-07-12T23:54:29.096Z,74.10
2017-07-12T23:56:58.173Z,74.50
2017-07-12T23:59:25.762Z,74.50
